sensor_id;sensor_type;location;lat;lon;timestamp;temperature;humidity
33673;DHT22;20011;51.510;9.942;2022-08-30T00:01:02;16.50;95.70
33673;DHT22;20011;51.510;9.942;2022-08-30T00:03:37;16.50;95.40
33673;DHT22;20011;51.510;9.942;2022-08-30T00:06:07;16.60;95.30
33673;DHT22;20011;51.510;9.942;2022-08-30T00:08:36;16.50;95.60
33673;DHT22;20011;51.510;9.942;2022-08-30T00:11:04;16.40;95.50
33673;DHT22;20011;51.510;9.942;2022-08-30T00:13:32;16.40;95.50
33673;DHT22;20011;51.510;9.942;2022-08-30T00:15:59;16.40;95.70
33673;DHT22;20011;51.510;9.942;2022-08-30T00:18:26;16.40;95.60
33673;DHT22;20011;51.510;9.942;2022-08-30T00:20:53;16.30;95.70
33673;DHT22;20011;51.510;9.942;2022-08-30T00:23:22;16.30;95.70
33673;DHT22;20011;51.510;9.942;2022-08-30T00:25:49;16.30;95.80
33673;DHT22;20011;51.510;9.942;2022-08-30T00:28:16;16.30;95.60
33673;DHT22;20011;51.510;9.942;2022-08-30T00:30:43;16.20;95.50
33673;DHT22;20011;51.510;9.942;2022-08-30T00:33:12;16.20;95.40
33673;DHT22;20011;51.510;9.942;2022-08-30T00:35:40;16.20;94.90
33673;DHT22;20011;51.510;9.942;2022-08-30T00:38:08;16.10;94.60
33673;DHT22;20011;51.510;9.942;2022-08-30T00:40:40;16.10;94.80
33673;DHT22;20011;51.510;9.942;2022-08-30T00:43:12;16.00;94.70
33673;DHT22;20011;51.510;9.942;2022-08-30T00:45:40;16.00;94.70
33673;DHT22;20011;51.510;9.942;2022-08-30T00:48:07;16.00;94.80
33673;DHT22;20011;51.510;9.942;2022-08-30T00:50:57;15.90;95.00
33673;DHT22;20011;51.510;9.942;2022-08-30T00:53:29;15.90;95.30
33673;DHT22;20011;51.510;9.942;2022-08-30T00:55:58;15.90;95.40
33673;DHT22;20011;51.510;9.942;2022-08-30T00:58:30;15.90;95.40
33673;DHT22;20011;51.510;9.942;2022-08-30T01:00:58;15.80;95.40
33673;DHT22;20011;51.510;9.942;2022-08-30T01:03:27;15.90;95.40
33673;DHT22;20011;51.510;9.942;2022-08-30T01:05:56;15.90;95.40
33673;DHT22;20011;51.510;9.942;2022-08-30T01:08:23;15.90;95.40
33673;DHT22;20011;51.510;9.942;2022-08-30T01:10:52;15.90;95.20
33673;DHT22;20011;51.510;9.942;2022-08-30T01:13:22;15.90;95.20
33673;DHT22;20011;51.510;9.942;2022-08-30T01:15:49;15.80;95.00
33673;DHT22;20011;51.510;9.942;2022-08-30T01:18:18;15.80;94.80
33673;DHT22;20011;51.510;9.942;2022-08-30T01:23:25;15.80;94.90
33673;DHT22;20011;51.510;9.942;2022-08-30T01:25:53;15.70;95.10
33673;DHT22;20011;51.510;9.942;2022-08-30T01:28:24;15.60;95.40
33673;DHT22;20011;51.510;9.942;2022-08-30T01:30:52;15.70;95.80
33673;DHT22;20011;51.510;9.942;2022-08-30T01:33:20;15.70;96.20
33673;DHT22;20011;51.510;9.942;2022-08-30T01:35:59;15.60;96.40
33673;DHT22;20011;51.510;9.942;2022-08-30T01:38:32;15.70;96.40
33673;DHT22;20011;51.510;9.942;2022-08-30T01:41:11;15.60;96.60
33673;DHT22;20011;51.510;9.942;2022-08-30T01:43:39;15.70;96.50
33673;DHT22;20011;51.510;9.942;2022-08-30T01:46:07;15.60;96.30
33673;DHT22;20011;51.510;9.942;2022-08-30T01:48:38;15.60;96.20
33673;DHT22;20011;51.510;9.942;2022-08-30T01:51:05;15.70;96.20
33673;DHT22;20011;51.510;9.942;2022-08-30T01:53:35;15.70;96.00
33673;DHT22;20011;51.510;9.942;2022-08-30T01:56:02;15.60;96.00
33673;DHT22;20011;51.510;9.942;2022-08-30T01:58:29;15.60;95.50
33673;DHT22;20011;51.510;9.942;2022-08-30T02:00:56;15.50;95.10
33673;DHT22;20011;51.510;9.942;2022-08-30T02:03:24;15.50;95.60
33673;DHT22;20011;51.510;9.942;2022-08-30T02:05:56;15.50;95.90
33673;DHT22;20011;51.510;9.942;2022-08-30T02:08:23;15.50;96.40
33673;DHT22;20011;51.510;9.942;2022-08-30T02:10:53;15.50;96.50
33673;DHT22;20011;51.510;9.942;2022-08-30T02:13:20;15.50;96.10
33673;DHT22;20011;51.510;9.942;2022-08-30T02:15:47;15.40;95.90
33673;DHT22;20011;51.510;9.942;2022-08-30T02:18:14;15.40;95.50
33673;DHT22;20011;51.510;9.942;2022-08-30T02:20:41;15.30;95.80
33673;DHT22;20011;51.510;9.942;2022-08-30T02:23:08;15.30;95.90
33673;DHT22;20011;51.510;9.942;2022-08-30T02:25:35;15.30;95.80
33673;DHT22;20011;51.510;9.942;2022-08-30T02:28:03;15.30;95.90
33673;DHT22;20011;51.510;9.942;2022-08-30T02:30:32;15.30;96.00
33673;DHT22;20011;51.510;9.942;2022-08-30T02:32:59;15.30;96.20
33673;DHT22;20011;51.510;9.942;2022-08-30T02:35:26;15.30;96.30
33673;DHT22;20011;51.510;9.942;2022-08-30T02:37:53;15.30;96.50
33673;DHT22;20011;51.510;9.942;2022-08-30T02:40:20;15.30;96.60
33673;DHT22;20011;51.510;9.942;2022-08-30T02:42:48;15.30;96.60
33673;DHT22;20011;51.510;9.942;2022-08-30T02:45:15;15.30;96.70
33673;DHT22;20011;51.510;9.942;2022-08-30T02:47:44;15.30;96.70
33673;DHT22;20011;51.510;9.942;2022-08-30T02:50:13;15.30;96.40
33673;DHT22;20011;51.510;9.942;2022-08-30T02:52:41;15.30;96.20
33673;DHT22;20011;51.510;9.942;2022-08-30T02:55:10;15.40;96.20
33673;DHT22;20011;51.510;9.942;2022-08-30T02:57:37;15.30;96.10
33673;DHT22;20011;51.510;9.942;2022-08-30T03:00:06;15.30;96.10
33673;DHT22;20011;51.510;9.942;2022-08-30T03:02:34;15.20;95.80
33673;DHT22;20011;51.510;9.942;2022-08-30T03:05:01;15.20;95.40
33673;DHT22;20011;51.510;9.942;2022-08-30T03:07:29;15.10;95.50
33673;DHT22;20011;51.510;9.942;2022-08-30T03:09:57;15.10;95.70
33673;DHT22;20011;51.510;9.942;2022-08-30T03:12:24;15.10;95.60
33673;DHT22;20011;51.510;9.942;2022-08-30T03:14:51;15.10;95.50
33673;DHT22;20011;51.510;9.942;2022-08-30T03:17:18;15.10;95.60
33673;DHT22;20011;51.510;9.942;2022-08-30T03:19:45;15.20;95.80
33673;DHT22;20011;51.510;9.942;2022-08-30T03:22:12;15.20;95.90
33673;DHT22;20011;51.510;9.942;2022-08-30T03:24:39;15.10;96.10
33673;DHT22;20011;51.510;9.942;2022-08-30T03:27:06;15.00;96.40
33673;DHT22;20011;51.510;9.942;2022-08-30T03:29:33;15.00;96.30
33673;DHT22;20011;51.510;9.942;2022-08-30T03:32:01;15.00;96.00
33673;DHT22;20011;51.510;9.942;2022-08-30T03:34:28;15.00;95.60
33673;DHT22;20011;51.510;9.942;2022-08-30T03:36:55;15.00;95.50
33673;DHT22;20011;51.510;9.942;2022-08-30T03:39:23;15.00;95.40
33673;DHT22;20011;51.510;9.942;2022-08-30T03:41:50;14.90;95.30
33673;DHT22;20011;51.510;9.942;2022-08-30T03:44:18;14.90;95.30
33673;DHT22;20011;51.510;9.942;2022-08-30T03:46:46;14.90;95.50
33673;DHT22;20011;51.510;9.942;2022-08-30T03:49:13;14.80;95.40
33673;DHT22;20011;51.510;9.942;2022-08-30T03:51:41;14.80;95.40
33673;DHT22;20011;51.510;9.942;2022-08-30T03:54:08;14.70;95.40
33673;DHT22;20011;51.510;9.942;2022-08-30T03:56:35;14.70;95.40
33673;DHT22;20011;51.510;9.942;2022-08-30T03:59:03;14.60;95.50
33673;DHT22;20011;51.510;9.942;2022-08-30T04:01:30;14.70;95.80
33673;DHT22;20011;51.510;9.942;2022-08-30T04:03:58;14.60;95.70
33673;DHT22;20011;51.510;9.942;2022-08-30T04:06:25;14.60;95.80
33673;DHT22;20011;51.510;9.942;2022-08-30T04:08:53;14.60;96.10
33673;DHT22;20011;51.510;9.942;2022-08-30T04:11:20;14.60;96.10
33673;DHT22;20011;51.510;9.942;2022-08-30T04:13:47;14.70;95.90
33673;DHT22;20011;51.510;9.942;2022-08-30T04:16:18;14.70;95.90
33673;DHT22;20011;51.510;9.942;2022-08-30T04:18:45;14.70;95.90
33673;DHT22;20011;51.510;9.942;2022-08-30T04:21:13;14.70;96.30
33673;DHT22;20011;51.510;9.942;2022-08-30T04:23:42;14.60;96.20
33673;DHT22;20011;51.510;9.942;2022-08-30T04:26:09;14.60;96.30
33673;DHT22;20011;51.510;9.942;2022-08-30T04:28:36;14.50;96.50
33673;DHT22;20011;51.510;9.942;2022-08-30T04:31:14;14.60;96.90
33673;DHT22;20011;51.510;9.942;2022-08-30T04:33:42;14.60;96.80
33673;DHT22;20011;51.510;9.942;2022-08-30T04:36:11;14.60;96.80
33673;DHT22;20011;51.510;9.942;2022-08-30T04:38:40;14.60;97.20
33673;DHT22;20011;51.510;9.942;2022-08-30T04:41:14;14.60;97.30
33673;DHT22;20011;51.510;9.942;2022-08-30T04:43:45;14.60;96.40
33673;DHT22;20011;51.510;9.942;2022-08-30T04:46:13;14.50;96.60
33673;DHT22;20011;51.510;9.942;2022-08-30T04:48:41;14.60;96.40
33673;DHT22;20011;51.510;9.942;2022-08-30T04:51:12;14.50;96.20
33673;DHT22;20011;51.510;9.942;2022-08-30T04:53:41;14.60;96.10
33673;DHT22;20011;51.510;9.942;2022-08-30T04:56:11;14.50;96.00
33673;DHT22;20011;51.510;9.942;2022-08-30T04:58:38;14.50;96.00
33673;DHT22;20011;51.510;9.942;2022-08-30T05:01:31;14.50;96.20
33673;DHT22;20011;51.510;9.942;2022-08-30T05:04:10;14.50;95.90
33673;DHT22;20011;51.510;9.942;2022-08-30T05:06:37;14.50;95.60
33673;DHT22;20011;51.510;9.942;2022-08-30T05:09:04;14.60;95.50
33673;DHT22;20011;51.510;9.942;2022-08-30T05:11:31;14.60;95.50
33673;DHT22;20011;51.510;9.942;2022-08-30T05:13:58;14.60;95.60
33673;DHT22;20011;51.510;9.942;2022-08-30T05:16:26;14.60;95.80
33673;DHT22;20011;51.510;9.942;2022-08-30T05:18:53;14.50;96.00
33673;DHT22;20011;51.510;9.942;2022-08-30T05:21:23;14.60;96.20
33673;DHT22;20011;51.510;9.942;2022-08-30T05:23:57;14.50;96.20
33673;DHT22;20011;51.510;9.942;2022-08-30T05:26:29;14.50;96.40
33673;DHT22;20011;51.510;9.942;2022-08-30T05:28:56;14.50;96.60
33673;DHT22;20011;51.510;9.942;2022-08-30T05:31:29;14.50;96.70
33673;DHT22;20011;51.510;9.942;2022-08-30T05:33:58;14.60;97.00
33673;DHT22;20011;51.510;9.942;2022-08-30T05:36:27;14.60;97.00
33673;DHT22;20011;51.510;9.942;2022-08-30T05:38:55;14.60;97.00
33673;DHT22;20011;51.510;9.942;2022-08-30T05:41:23;14.60;97.00
33673;DHT22;20011;51.510;9.942;2022-08-30T05:43:57;14.60;97.00
33673;DHT22;20011;51.510;9.942;2022-08-30T05:46:26;14.70;97.00
33673;DHT22;20011;51.510;9.942;2022-08-30T05:48:55;14.80;97.10
33673;DHT22;20011;51.510;9.942;2022-08-30T05:51:24;14.90;97.00
33673;DHT22;20011;51.510;9.942;2022-08-30T05:53:52;14.80;96.90
33673;DHT22;20011;51.510;9.942;2022-08-30T05:56:30;15.00;97.10
33673;DHT22;20011;51.510;9.942;2022-08-30T05:58:57;15.10;97.20
33673;DHT22;20011;51.510;9.942;2022-08-30T06:01:28;15.20;97.20
33673;DHT22;20011;51.510;9.942;2022-08-30T06:03:56;15.20;97.10
33673;DHT22;20011;51.510;9.942;2022-08-30T06:06:31;15.20;97.00
33673;DHT22;20011;51.510;9.942;2022-08-30T06:08:58;15.30;97.20
33673;DHT22;20011;51.510;9.942;2022-08-30T06:11:25;15.30;97.20
33673;DHT22;20011;51.510;9.942;2022-08-30T06:13:53;15.40;97.30
33673;DHT22;20011;51.510;9.942;2022-08-30T06:16:22;15.40;97.60
33673;DHT22;20011;51.510;9.942;2022-08-30T06:18:50;15.50;97.70
33673;DHT22;20011;51.510;9.942;2022-08-30T06:21:23;15.60;97.90
33673;DHT22;20011;51.510;9.942;2022-08-30T06:23:51;15.60;97.70
33673;DHT22;20011;51.510;9.942;2022-08-30T06:26:18;15.80;97.40
33673;DHT22;20011;51.510;9.942;2022-08-30T06:28:46;15.80;97.50
33673;DHT22;20011;51.510;9.942;2022-08-30T06:31:15;15.90;97.80
33673;DHT22;20011;51.510;9.942;2022-08-30T06:33:43;15.90;98.00
33673;DHT22;20011;51.510;9.942;2022-08-30T06:36:20;16.00;98.20
33673;DHT22;20011;51.510;9.942;2022-08-30T06:38:49;16.10;98.30
33673;DHT22;20011;51.510;9.942;2022-08-30T06:41:20;16.10;98.40
33673;DHT22;20011;51.510;9.942;2022-08-30T06:43:48;16.20;98.40
33673;DHT22;20011;51.510;9.942;2022-08-30T06:46:19;16.30;98.60
33673;DHT22;20011;51.510;9.942;2022-08-30T06:48:47;16.30;98.50
33673;DHT22;20011;51.510;9.942;2022-08-30T06:51:18;16.40;98.40
33673;DHT22;20011;51.510;9.942;2022-08-30T06:53:45;16.50;98.50
33673;DHT22;20011;51.510;9.942;2022-08-30T06:56:14;16.50;98.50
33673;DHT22;20011;51.510;9.942;2022-08-30T06:58:43;16.50;98.30
33673;DHT22;20011;51.510;9.942;2022-08-30T07:01:15;16.50;98.30
33673;DHT22;20011;51.510;9.942;2022-08-30T07:03:43;16.60;98.40
33673;DHT22;20011;51.510;9.942;2022-08-30T07:06:11;16.70;98.40
33673;DHT22;20011;51.510;9.942;2022-08-30T07:08:39;16.60;98.50
33673;DHT22;20011;51.510;9.942;2022-08-30T07:11:07;16.70;98.50
33673;DHT22;20011;51.510;9.942;2022-08-30T07:13:36;16.80;98.50
33673;DHT22;20011;51.510;9.942;2022-08-30T07:16:11;16.70;98.50
33673;DHT22;20011;51.510;9.942;2022-08-30T07:18:38;16.80;98.60
33673;DHT22;20011;51.510;9.942;2022-08-30T07:21:32;16.90;98.60
33673;DHT22;20011;51.510;9.942;2022-08-30T07:24:00;17.00;98.70
33673;DHT22;20011;51.510;9.942;2022-08-30T07:26:48;17.00;99.00
33673;DHT22;20011;51.510;9.942;2022-08-30T07:29:18;17.10;99.50
33673;DHT22;20011;51.510;9.942;2022-08-30T07:31:47;17.10;99.90
33673;DHT22;20011;51.510;9.942;2022-08-30T07:34:14;17.30;99.90
33673;DHT22;20011;51.510;9.942;2022-08-30T07:36:41;17.30;99.90
33673;DHT22;20011;51.510;9.942;2022-08-30T07:39:08;17.40;99.90
33673;DHT22;20011;51.510;9.942;2022-08-30T07:41:36;17.50;99.90
33673;DHT22;20011;51.510;9.942;2022-08-30T07:44:07;17.50;99.90
33673;DHT22;20011;51.510;9.942;2022-08-30T07:46:38;17.50;99.90
33673;DHT22;20011;51.510;9.942;2022-08-30T07:49:06;17.60;99.90
33673;DHT22;20011;51.510;9.942;2022-08-30T07:51:38;17.60;99.90
33673;DHT22;20011;51.510;9.942;2022-08-30T07:54:05;17.60;99.90
33673;DHT22;20011;51.510;9.942;2022-08-30T07:56:33;17.60;99.90
33673;DHT22;20011;51.510;9.942;2022-08-30T07:59:00;17.60;99.90
33673;DHT22;20011;51.510;9.942;2022-08-30T08:01:28;17.70;99.90
33673;DHT22;20011;51.510;9.942;2022-08-30T08:03:55;17.60;99.90
33673;DHT22;20011;51.510;9.942;2022-08-30T08:06:23;17.70;99.90
33673;DHT22;20011;51.510;9.942;2022-08-30T08:08:50;17.70;99.90
33673;DHT22;20011;51.510;9.942;2022-08-30T08:11:22;17.70;99.90
33673;DHT22;20011;51.510;9.942;2022-08-30T08:13:50;17.80;99.90
33673;DHT22;20011;51.510;9.942;2022-08-30T08:16:22;17.70;99.90
33673;DHT22;20011;51.510;9.942;2022-08-30T08:18:50;17.70;99.90
33673;DHT22;20011;51.510;9.942;2022-08-30T08:21:17;17.70;99.90
33673;DHT22;20011;51.510;9.942;2022-08-30T08:23:44;17.60;99.90
33673;DHT22;20011;51.510;9.942;2022-08-30T08:26:11;17.70;99.90
33673;DHT22;20011;51.510;9.942;2022-08-30T08:28:40;17.60;99.90
33673;DHT22;20011;51.510;9.942;2022-08-30T08:31:16;17.70;99.90
33673;DHT22;20011;51.510;9.942;2022-08-30T08:33:43;17.60;99.90
33673;DHT22;20011;51.510;9.942;2022-08-30T08:36:11;17.60;99.90
33673;DHT22;20011;51.510;9.942;2022-08-30T08:38:38;17.60;99.90
33673;DHT22;20011;51.510;9.942;2022-08-30T08:41:43;17.60;99.90
33673;DHT22;20011;51.510;9.942;2022-08-30T08:49:53;17.60;99.90
33673;DHT22;20011;51.510;9.942;2022-08-30T08:52:29;17.60;99.90
33673;DHT22;20011;51.510;9.942;2022-08-30T08:55:20;17.60;99.90
33673;DHT22;20011;51.510;9.942;2022-08-30T08:57:48;17.70;99.90
33673;DHT22;20011;51.510;9.942;2022-08-30T09:00:18;17.70;99.90
33673;DHT22;20011;51.510;9.942;2022-08-30T09:02:54;17.70;99.90
33673;DHT22;20011;51.510;9.942;2022-08-30T09:05:25;17.70;99.90
33673;DHT22;20011;51.510;9.942;2022-08-30T09:07:59;17.80;99.90
33673;DHT22;20011;51.510;9.942;2022-08-30T09:10:34;17.70;99.90
33673;DHT22;20011;51.510;9.942;2022-08-30T09:13:16;17.70;99.90
33673;DHT22;20011;51.510;9.942;2022-08-30T09:15:45;17.80;99.90
33673;DHT22;20011;51.510;9.942;2022-08-30T09:18:18;17.80;99.90
33673;DHT22;20011;51.510;9.942;2022-08-30T09:20:49;17.80;99.90
33673;DHT22;20011;51.510;9.942;2022-08-30T09:28:34;17.90;99.90
33673;DHT22;20011;51.510;9.942;2022-08-30T09:34:08;17.90;99.90
33673;DHT22;20011;51.510;9.942;2022-08-30T09:36:47;18.00;99.90
33673;DHT22;20011;51.510;9.942;2022-08-30T09:39:34;17.90;99.90
33673;DHT22;20011;51.510;9.942;2022-08-30T09:42:22;17.90;99.90
33673;DHT22;20011;51.510;9.942;2022-08-30T09:44:52;18.10;99.90
33673;DHT22;20011;51.510;9.942;2022-08-30T09:47:22;18.00;99.90
33673;DHT22;20011;51.510;9.942;2022-08-30T09:50:18;18.10;99.90
33673;DHT22;20011;51.510;9.942;2022-08-30T09:53:13;18.10;99.90
33673;DHT22;20011;51.510;9.942;2022-08-30T10:08:11;18.30;99.90
33673;DHT22;20011;51.510;9.942;2022-08-30T10:11:03;18.40;99.90
33673;DHT22;20011;51.510;9.942;2022-08-30T10:14:06;18.50;99.90
33673;DHT22;20011;51.510;9.942;2022-08-30T10:19:23;18.50;99.90
33673;DHT22;20011;51.510;9.942;2022-08-30T10:21:54;18.60;99.90
33673;DHT22;20011;51.510;9.942;2022-08-30T10:24:30;18.60;99.90
33673;DHT22;20011;51.510;9.942;2022-08-30T10:30:06;18.70;99.90
33673;DHT22;20011;51.510;9.942;2022-08-30T10:32:47;18.70;99.90
33673;DHT22;20011;51.510;9.942;2022-08-30T10:35:28;18.80;99.90
33673;DHT22;20011;51.510;9.942;2022-08-30T10:38:27;18.90;99.90
33673;DHT22;20011;51.510;9.942;2022-08-30T10:49:34;19.20;99.90
33673;DHT22;20011;51.510;9.942;2022-08-30T10:52:21;19.20;99.90
33673;DHT22;20011;51.510;9.942;2022-08-30T10:55:13;19.20;99.90
33673;DHT22;20011;51.510;9.942;2022-08-30T10:57:41;19.30;99.90
33673;DHT22;20011;51.510;9.942;2022-08-30T11:00:12;19.40;99.90
33673;DHT22;20011;51.510;9.942;2022-08-30T11:11:02;19.50;99.90
33673;DHT22;20011;51.510;9.942;2022-08-30T11:13:31;19.50;99.90
33673;DHT22;20011;51.510;9.942;2022-08-30T11:16:04;19.60;99.90
33673;DHT22;20011;51.510;9.942;2022-08-30T11:21:34;19.60;99.90
33673;DHT22;20011;51.510;9.942;2022-08-30T11:24:09;19.70;99.90
33673;DHT22;20011;51.510;9.942;2022-08-30T11:29:51;19.70;99.90
33673;DHT22;20011;51.510;9.942;2022-08-30T11:32:23;19.80;99.90
33673;DHT22;20011;51.510;9.942;2022-08-30T11:34:57;19.90;99.90
33673;DHT22;20011;51.510;9.942;2022-08-30T11:37:37;19.80;99.90
33673;DHT22;20011;51.510;9.942;2022-08-30T11:42:45;20.00;99.40
33673;DHT22;20011;51.510;9.942;2022-08-30T11:50:55;20.10;98.90
33673;DHT22;20011;51.510;9.942;2022-08-30T11:53:49;20.20;98.60
33673;DHT22;20011;51.510;9.942;2022-08-30T11:56:24;20.20;98.60
33673;DHT22;20011;51.510;9.942;2022-08-30T11:59:08;20.30;98.40
33673;DHT22;20011;51.510;9.942;2022-08-30T12:01:45;20.30;98.50
33673;DHT22;20011;51.510;9.942;2022-08-30T12:06:50;20.40;98.30
33673;DHT22;20011;51.510;9.942;2022-08-30T12:11:57;20.40;97.50
33673;DHT22;20011;51.510;9.942;2022-08-30T12:17:15;20.50;96.90
33673;DHT22;20011;51.510;9.942;2022-08-30T12:20:05;20.50;96.90
33673;DHT22;20011;51.510;9.942;2022-08-30T12:22:37;20.50;96.80
33673;DHT22;20011;51.510;9.942;2022-08-30T12:25:23;20.50;96.90
33673;DHT22;20011;51.510;9.942;2022-08-30T12:28:20;20.60;96.60
33673;DHT22;20011;51.510;9.942;2022-08-30T12:30:48;20.50;96.60
33673;DHT22;20011;51.510;9.942;2022-08-30T12:33:25;20.50;96.30
33673;DHT22;20011;51.510;9.942;2022-08-30T12:35:55;20.50;96.00
33673;DHT22;20011;51.510;9.942;2022-08-30T12:38:27;20.60;95.90
33673;DHT22;20011;51.510;9.942;2022-08-30T12:41:00;20.60;95.60
33673;DHT22;20011;51.510;9.942;2022-08-30T12:43:37;20.70;95.50
33673;DHT22;20011;51.510;9.942;2022-08-30T12:46:10;20.60;95.40
33673;DHT22;20011;51.510;9.942;2022-08-30T12:48:42;20.70;95.60
33673;DHT22;20011;51.510;9.942;2022-08-30T12:51:28;20.80;95.10
33673;DHT22;20011;51.510;9.942;2022-08-30T12:54:03;20.80;95.00
33673;DHT22;20011;51.510;9.942;2022-08-30T13:02:26;21.00;94.50
33673;DHT22;20011;51.510;9.942;2022-08-30T13:04:55;21.10;94.10
33673;DHT22;20011;51.510;9.942;2022-08-30T13:07:34;21.00;94.10
33673;DHT22;20011;51.510;9.942;2022-08-30T13:10:17;21.00;93.90
33673;DHT22;20011;51.510;9.942;2022-08-30T13:13:03;21.00;93.90
33673;DHT22;20011;51.510;9.942;2022-08-30T13:15:33;21.00;93.90
33673;DHT22;20011;51.510;9.942;2022-08-30T13:18:23;21.10;93.60
33673;DHT22;20011;51.510;9.942;2022-08-30T13:23:55;21.10;93.70
33673;DHT22;20011;51.510;9.942;2022-08-30T13:26:23;21.10;93.40
33673;DHT22;20011;51.510;9.942;2022-08-30T13:28:58;21.10;93.20
33673;DHT22;20011;51.510;9.942;2022-08-30T13:31:27;21.10;93.30
33673;DHT22;20011;51.510;9.942;2022-08-30T13:33:56;21.20;93.10
33673;DHT22;20011;51.510;9.942;2022-08-30T13:36:31;21.20;93.00
33673;DHT22;20011;51.510;9.942;2022-08-30T13:39:00;21.20;93.00
33673;DHT22;20011;51.510;9.942;2022-08-30T13:41:27;21.20;92.60
33673;DHT22;20011;51.510;9.942;2022-08-30T13:44:00;21.20;92.10
33673;DHT22;20011;51.510;9.942;2022-08-30T13:46:42;21.20;91.80
33673;DHT22;20011;51.510;9.942;2022-08-30T13:49:29;21.20;91.50
33673;DHT22;20011;51.510;9.942;2022-08-30T13:52:16;21.20;91.30
33673;DHT22;20011;51.510;9.942;2022-08-30T13:54:49;21.20;91.00
33673;DHT22;20011;51.510;9.942;2022-08-30T13:57:17;21.20;90.90
33673;DHT22;20011;51.510;9.942;2022-08-30T14:00:09;21.30;90.70
33673;DHT22;20011;51.510;9.942;2022-08-30T14:02:38;21.20;90.50
33673;DHT22;20011;51.510;9.942;2022-08-30T14:05:13;21.30;90.40
33673;DHT22;20011;51.510;9.942;2022-08-30T14:08:01;21.20;90.20
33673;DHT22;20011;51.510;9.942;2022-08-30T14:10:29;21.20;89.80
33673;DHT22;20011;51.510;9.942;2022-08-30T14:12:58;21.10;89.70
33673;DHT22;20011;51.510;9.942;2022-08-30T14:15:35;21.20;90.00
33673;DHT22;20011;51.510;9.942;2022-08-30T14:18:06;21.10;90.00
33673;DHT22;20011;51.510;9.942;2022-08-30T14:20:34;21.10;89.90
33673;DHT22;20011;51.510;9.942;2022-08-30T14:23:05;21.10;90.30
33673;DHT22;20011;51.510;9.942;2022-08-30T14:25:36;21.10;89.30
33673;DHT22;20011;51.510;9.942;2022-08-30T14:28:07;21.20;88.80
33673;DHT22;20011;51.510;9.942;2022-08-30T14:30:36;21.20;88.80
33673;DHT22;20011;51.510;9.942;2022-08-30T14:33:05;21.20;88.70
33673;DHT22;20011;51.510;9.942;2022-08-30T14:35:32;21.30;88.30
33673;DHT22;20011;51.510;9.942;2022-08-30T14:37:59;21.30;87.40
33673;DHT22;20011;51.510;9.942;2022-08-30T14:40:26;21.30;87.00
33673;DHT22;20011;51.510;9.942;2022-08-30T14:42:54;21.40;86.60
33673;DHT22;20011;51.510;9.942;2022-08-30T14:45:21;21.50;86.10
33673;DHT22;20011;51.510;9.942;2022-08-30T14:47:49;21.50;85.60
33673;DHT22;20011;51.510;9.942;2022-08-30T14:50:16;21.50;85.40
33673;DHT22;20011;51.510;9.942;2022-08-30T14:52:43;21.50;84.90
33673;DHT22;20011;51.510;9.942;2022-08-30T14:55:11;21.50;84.90
33673;DHT22;20011;51.510;9.942;2022-08-30T14:57:38;21.50;85.00
33673;DHT22;20011;51.510;9.942;2022-08-30T15:00:09;21.50;83.80
33673;DHT22;20011;51.510;9.942;2022-08-30T15:02:36;21.50;84.00
33673;DHT22;20011;51.510;9.942;2022-08-30T15:05:04;21.30;84.40
33673;DHT22;20011;51.510;9.942;2022-08-30T15:07:34;21.20;85.10
33673;DHT22;20011;51.510;9.942;2022-08-30T15:10:14;21.20;86.30
33673;DHT22;20011;51.510;9.942;2022-08-30T15:12:47;21.10;87.10
33673;DHT22;20011;51.510;9.942;2022-08-30T15:15:18;21.00;87.80
33673;DHT22;20011;51.510;9.942;2022-08-30T15:17:47;21.00;88.00
33673;DHT22;20011;51.510;9.942;2022-08-30T15:20:16;21.00;88.40
33673;DHT22;20011;51.510;9.942;2022-08-30T15:22:46;21.10;88.30
33673;DHT22;20011;51.510;9.942;2022-08-30T15:25:15;21.00;88.30
33673;DHT22;20011;51.510;9.942;2022-08-30T15:27:46;21.00;87.60
33673;DHT22;20011;51.510;9.942;2022-08-30T15:30:14;20.90;87.30
33673;DHT22;20011;51.510;9.942;2022-08-30T15:32:45;20.90;87.30
33673;DHT22;20011;51.510;9.942;2022-08-30T15:35:12;20.90;87.90
33673;DHT22;20011;51.510;9.942;2022-08-30T15:37:44;20.90;87.30
33673;DHT22;20011;51.510;9.942;2022-08-30T15:40:13;20.80;87.00
33673;DHT22;20011;51.510;9.942;2022-08-30T15:42:40;20.90;86.80
33673;DHT22;20011;51.510;9.942;2022-08-30T15:45:08;20.80;86.50
33673;DHT22;20011;51.510;9.942;2022-08-30T15:47:36;20.80;86.90
33673;DHT22;20011;51.510;9.942;2022-08-30T15:50:05;20.80;86.70
33673;DHT22;20011;51.510;9.942;2022-08-30T15:52:32;20.80;86.20
33673;DHT22;20011;51.510;9.942;2022-08-30T15:54:59;20.80;85.70
33673;DHT22;20011;51.510;9.942;2022-08-30T15:57:26;20.80;85.70
33673;DHT22;20011;51.510;9.942;2022-08-30T15:59:54;20.80;85.60
33673;DHT22;20011;51.510;9.942;2022-08-30T16:02:21;20.70;85.70
33673;DHT22;20011;51.510;9.942;2022-08-30T16:04:53;20.70;85.80
33673;DHT22;20011;51.510;9.942;2022-08-30T16:07:20;20.70;86.10
33673;DHT22;20011;51.510;9.942;2022-08-30T16:09:47;20.70;86.40
33673;DHT22;20011;51.510;9.942;2022-08-30T16:12:14;20.70;86.20
33673;DHT22;20011;51.510;9.942;2022-08-30T16:14:50;20.70;86.00
33673;DHT22;20011;51.510;9.942;2022-08-30T16:17:17;20.80;85.70
33673;DHT22;20011;51.510;9.942;2022-08-30T16:19:44;20.80;85.10
33673;DHT22;20011;51.510;9.942;2022-08-30T16:22:11;20.80;85.20
33673;DHT22;20011;51.510;9.942;2022-08-30T16:24:41;20.70;84.60
33673;DHT22;20011;51.510;9.942;2022-08-30T16:27:12;20.80;84.60
33673;DHT22;20011;51.510;9.942;2022-08-30T16:29:39;20.80;85.20
33673;DHT22;20011;51.510;9.942;2022-08-30T16:32:06;20.80;84.70
33673;DHT22;20011;51.510;9.942;2022-08-30T16:34:33;20.80;84.70
33673;DHT22;20011;51.510;9.942;2022-08-30T16:37:02;20.70;85.40
33673;DHT22;20011;51.510;9.942;2022-08-30T16:39:31;20.80;86.30
33673;DHT22;20011;51.510;9.942;2022-08-30T16:41:58;20.80;86.70
33673;DHT22;20011;51.510;9.942;2022-08-30T16:44:29;20.70;87.10
33673;DHT22;20011;51.510;9.942;2022-08-30T16:46:56;20.70;87.80
33673;DHT22;20011;51.510;9.942;2022-08-30T16:49:23;20.70;88.00
33673;DHT22;20011;51.510;9.942;2022-08-30T16:51:52;20.70;87.70
33673;DHT22;20011;51.510;9.942;2022-08-30T16:54:19;20.70;87.80
33673;DHT22;20011;51.510;9.942;2022-08-30T16:56:46;20.70;87.60
33673;DHT22;20011;51.510;9.942;2022-08-30T16:59:13;20.70;87.40
33673;DHT22;20011;51.510;9.942;2022-08-30T17:01:41;20.80;87.40
33673;DHT22;20011;51.510;9.942;2022-08-30T17:04:10;20.70;87.50
33673;DHT22;20011;51.510;9.942;2022-08-30T17:06:41;20.70;87.70
33673;DHT22;20011;51.510;9.942;2022-08-30T17:09:09;20.70;87.20
33673;DHT22;20011;51.510;9.942;2022-08-30T17:11:38;20.70;86.80
33673;DHT22;20011;51.510;9.942;2022-08-30T17:14:06;20.80;86.70
33673;DHT22;20011;51.510;9.942;2022-08-30T17:16:34;20.70;86.30